createdAt,value
2022-11-29T00:01:25.593Z,88063.75
2022-11-29T00:04:10.314Z,88057.81
2022-11-29T00:06:55.015Z,88053.22
2022-11-29T00:09:39.803Z,88054.72
2022-11-29T00:12:25.035Z,88055.63
2022-11-29T00:15:09.935Z,88047.88
2022-11-29T00:17:54.649Z,88042.69
2022-11-29T00:20:39.437Z,88042.75
2022-11-29T00:23:24.211Z,88040.47
2022-11-29T00:26:08.913Z,88035.28
2022-11-29T00:28:53.707Z,88030.28
2022-11-29T00:31:38.471Z,88037.84
2022-11-29T00:34:23.343Z,88041.34
2022-11-29T00:37:08.089Z,88032.88
2022-11-29T00:39:52.851Z,88029.38
2022-11-29T00:42:37.669Z,88030.06
2022-11-29T00:45:22.487Z,88023.88
2022-11-29T00:48:07.237Z,88032.56
2022-11-29T00:50:52.039Z,88021.81
2022-11-29T00:53:37.004Z,88029.97
2022-11-29T00:56:21.701Z,88028.38
2022-11-29T00:59:06.588Z,88025.31
2022-11-29T01:01:51.242Z,88027.06
2022-11-29T01:04:35.998Z,88027.69
2022-11-29T01:07:21.955Z,88029.72
2022-11-29T01:10:06.641Z,88029.63
2022-11-29T01:12:51.379Z,88024.84
2022-11-29T01:15:36.164Z,88031.53
2022-11-29T01:18:21.143Z,88023.88
2022-11-29T01:21:05.843Z,88025.03
2022-11-29T01:23:50.659Z,88028.00
2022-11-29T01:26:35.328Z,88027.31
2022-11-29T01:29:20.249Z,88032.91
2022-11-29T01:32:04.910Z,88027.03
2022-11-29T01:34:49.839Z,88034.28
2022-11-29T01:37:34.524Z,88015.78
2022-11-29T01:40:19.226Z,88020.25
2022-11-29T01:43:03.966Z,88011.81
2022-11-29T01:45:48.799Z,88015.16
2022-11-29T01:48:33.591Z,88023.81
2022-11-29T01:51:18.314Z,88017.75
2022-11-29T01:54:03.137Z,88019.44
2022-11-29T01:56:47.714Z,88015.44
2022-11-29T01:59:32.551Z,88013.84
2022-11-29T02:02:17.255Z,88015.03
2022-11-29T02:05:02.176Z,88012.03
2022-11-29T02:07:46.918Z,88014.84
2022-11-29T02:10:31.594Z,88013.22
2022-11-29T02:13:16.272Z,88017.09
2022-11-29T02:16:01.185Z,88014.50
2022-11-29T02:18:45.923Z,88011.97
2022-11-29T02:21:30.718Z,88011.69
2022-11-29T02:24:15.751Z,88012.59
2022-11-29T02:27:00.489Z,88014.50
2022-11-29T02:29:45.269Z,88006.94
2022-11-29T02:32:29.982Z,88012.81
2022-11-29T02:35:14.757Z,88012.09
2022-11-29T02:37:59.447Z,88003.19
2022-11-29T02:40:44.108Z,88010.22
2022-11-29T02:43:28.816Z,88003.72
2022-11-29T02:46:13.623Z,87998.84
2022-11-29T02:48:58.530Z,88006.59
2022-11-29T02:51:43.334Z,87998.56
2022-11-29T02:54:28.040Z,87999.13
2022-11-29T02:57:12.663Z,88000.72
2022-11-29T02:59:57.471Z,87992.50
2022-11-29T03:02:42.279Z,87994.59
2022-11-29T03:05:27.045Z,87992.50
2022-11-29T03:08:11.767Z,87995.00
2022-11-29T03:10:56.377Z,87998.72
2022-11-29T03:13:41.085Z,87996.81
2022-11-29T03:16:25.764Z,87989.75
2022-11-29T03:19:10.571Z,87995.78
2022-11-29T03:21:55.373Z,87995.38
2022-11-29T03:24:40.221Z,87990.13
2022-11-29T03:27:24.914Z,87996.44
2022-11-29T03:30:09.693Z,87998.25
2022-11-29T03:32:54.386Z,88008.03
2022-11-29T03:35:39.534Z,88002.88
2022-11-29T03:38:24.346Z,88002.00
2022-11-29T03:41:09.162Z,88004.66
2022-11-29T03:43:53.988Z,88009.44
2022-11-29T03:46:38.827Z,88004.53
2022-11-29T03:49:23.584Z,88009.94
2022-11-29T03:52:08.207Z,88012.25
2022-11-29T03:54:53.064Z,88004.53
2022-11-29T03:57:37.830Z,88010.53
2022-11-29T04:00:22.542Z,88010.50
2022-11-29T04:03:07.303Z,88006.97
2022-11-29T04:05:52.115Z,88008.34
2022-11-29T04:08:36.908Z,88012.56
2022-11-29T04:11:21.680Z,88013.50
2022-11-29T04:14:06.386Z,88009.75
2022-11-29T04:16:51.139Z,88006.69
2022-11-29T04:19:35.960Z,88004.94
2022-11-29T04:22:20.691Z,87999.38
2022-11-29T04:25:05.514Z,88004.22
2022-11-29T04:27:50.288Z,88014.28
2022-11-29T04:30:35.070Z,88016.09
2022-11-29T04:33:19.813Z,88017.28
2022-11-29T04:36:04.604Z,88016.84
2022-11-29T04:38:49.371Z,88022.28
2022-11-29T04:41:34.237Z,88015.94
2022-11-29T04:44:18.953Z,88008.19
2022-11-29T04:47:03.693Z,88016.84
2022-11-29T04:49:48.410Z,88013.59
2022-11-29T04:52:33.275Z,88014.31
2022-11-29T04:55:26.142Z,88017.59
2022-11-29T04:58:11.385Z,88024.19
2022-11-29T05:00:56.077Z,88026.69
2022-11-29T05:03:40.885Z,88026.22
2022-11-29T05:06:25.529Z,88026.06
2022-11-29T05:09:10.152Z,88024.91
2022-11-29T05:11:54.903Z,88026.97
2022-11-29T05:14:39.694Z,88028.38
2022-11-29T05:17:24.535Z,88024.31
2022-11-29T05:20:09.393Z,88028.53
2022-11-29T05:22:54.187Z,88032.50
2022-11-29T05:25:38.936Z,88036.00
2022-11-29T05:28:23.808Z,88033.84
2022-11-29T05:31:08.652Z,88029.63
2022-11-29T05:33:53.274Z,88036.50
2022-11-29T05:36:37.937Z,88024.56
2022-11-29T05:39:22.664Z,88037.47
2022-11-29T05:42:07.417Z,88035.06
2022-11-29T05:44:52.154Z,88033.41
2022-11-29T05:47:36.970Z,88027.06
2022-11-29T05:50:21.575Z,88039.50
2022-11-29T05:53:06.345Z,88040.41
2022-11-29T05:55:50.980Z,88038.03
2022-11-29T05:58:35.752Z,88038.56
2022-11-29T06:01:20.405Z,88039.53
2022-11-29T06:04:07.028Z,88035.06
2022-11-29T06:06:55.370Z,88033.91
2022-11-29T06:09:40.123Z,88033.41
2022-11-29T06:12:25.595Z,88038.81
2022-11-29T06:15:10.288Z,88034.81
2022-11-29T06:17:55.095Z,88038.31
2022-11-29T06:20:39.736Z,88037.13
2022-11-29T06:23:24.656Z,88040.41
2022-11-29T06:26:09.333Z,88043.25
2022-11-29T06:28:54.190Z,88041.38
2022-11-29T06:31:39.075Z,88039.69
2022-11-29T06:34:29.165Z,88049.81
2022-11-29T06:37:15.707Z,88049.13
2022-11-29T06:40:00.468Z,88045.63
2022-11-29T06:42:45.216Z,88046.81
2022-11-29T06:45:30.045Z,88052.88
2022-11-29T06:48:14.635Z,88054.28
2022-11-29T06:50:59.456Z,88058.72
2022-11-29T06:53:44.119Z,88055.69
2022-11-29T06:56:29.004Z,88065.91
2022-11-29T06:59:13.778Z,88067.66
2022-11-29T07:01:58.658Z,88067.94
2022-11-29T07:04:46.140Z,88060.72
2022-11-29T07:07:31.331Z,88066.63
2022-11-29T07:10:16.085Z,88060.91
2022-11-29T07:13:00.870Z,88066.72
2022-11-29T07:15:45.727Z,88071.03
2022-11-29T07:18:30.520Z,88072.41
2022-11-29T07:21:15.300Z,88072.41
2022-11-29T07:24:00.342Z,88070.44
2022-11-29T07:26:45.106Z,88079.09
2022-11-29T07:29:29.886Z,88073.22
2022-11-29T07:32:14.514Z,88075.53
2022-11-29T07:34:59.220Z,88080.63
2022-11-29T07:37:43.959Z,88077.53
2022-11-29T07:40:31.932Z,88073.75
2022-11-29T07:43:19.667Z,88077.03
2022-11-29T07:46:04.334Z,88080.94
2022-11-29T07:48:49.090Z,88078.31
2022-11-29T07:51:33.701Z,88076.91
2022-11-29T07:54:18.384Z,88083.22
2022-11-29T07:57:03.223Z,88085.56
2022-11-29T07:59:47.915Z,88081.53
2022-11-29T08:02:33.151Z,88081.53
2022-11-29T08:05:17.882Z,88087.13
2022-11-29T08:08:02.700Z,88090.28
2022-11-29T08:10:47.407Z,88088.56
2022-11-29T08:13:32.216Z,88093.38
2022-11-29T08:16:16.822Z,88091.41
2022-11-29T08:19:01.662Z,88096.31
2022-11-29T08:21:46.464Z,88096.28
2022-11-29T08:24:31.247Z,88087.88
2022-11-29T08:27:16.071Z,88094.63
2022-11-29T08:30:00.741Z,88097.06
2022-11-29T08:32:49.995Z,88093.94
2022-11-29T08:35:36.351Z,88101.41
2022-11-29T08:38:21.046Z,88103.53
2022-11-29T08:41:05.876Z,88107.16
2022-11-29T08:43:50.564Z,88094.03
2022-11-29T08:46:35.345Z,88102.34
2022-11-29T08:49:20.107Z,88109.03
2022-11-29T08:52:04.939Z,88108.19
2022-11-29T08:54:49.813Z,88107.25
2022-11-29T08:57:41.730Z,88106.47
2022-11-29T09:00:27.022Z,88109.28
2022-11-29T09:03:11.729Z,88106.22
2022-11-29T09:05:56.467Z,88113.69
2022-11-29T09:08:41.238Z,88111.06
2022-11-29T09:11:26.028Z,88108.84
2022-11-29T09:14:10.863Z,88119.31
2022-11-29T09:16:55.609Z,88118.56
2022-11-29T09:19:40.886Z,88121.50
2022-11-29T09:22:25.628Z,88124.22
2022-11-29T09:25:10.418Z,88119.00
2022-11-29T09:27:55.116Z,88124.94
2022-11-29T09:30:40.058Z,88122.72
2022-11-29T09:33:24.748Z,88123.53
2022-11-29T09:36:09.390Z,88128.34
2022-11-29T09:38:54.158Z,88128.34
2022-11-29T09:41:40.281Z,88131.63
2022-11-29T09:44:26.632Z,88137.66
2022-11-29T09:47:11.287Z,88133.47
2022-11-29T09:49:56.030Z,88133.47
2022-11-29T09:52:40.916Z,88139.69
2022-11-29T09:55:25.696Z,88131.56
2022-11-29T09:58:10.698Z,88133.38
2022-11-29T10:00:55.586Z,88138.13
2022-11-29T10:03:40.653Z,88138.97
2022-11-29T10:06:25.360Z,88135.06
2022-11-29T10:09:10.169Z,88138.50
2022-11-29T10:11:54.807Z,88132.03
2022-11-29T10:14:39.594Z,88137.66
2022-11-29T10:17:24.438Z,88136.41
2022-11-29T10:20:09.088Z,88136.81
2022-11-29T10:22:53.777Z,88129.25
2022-11-29T10:25:38.590Z,88127.84
2022-11-29T10:28:23.469Z,88127.56
2022-11-29T10:31:08.303Z,88125.59
2022-11-29T10:33:53.053Z,88127.50
2022-11-29T10:36:37.720Z,88129.56
2022-11-29T10:39:22.476Z,88134.50
2022-11-29T10:42:07.208Z,88132.34
2022-11-29T10:44:52.018Z,88123.53
2022-11-29T10:47:36.599Z,88125.34
2022-11-29T10:50:21.375Z,88121.16
2022-11-29T10:53:06.263Z,88120.38
2022-11-29T10:55:51.114Z,88116.50
2022-11-29T10:58:35.794Z,88113.69
2022-11-29T11:01:20.516Z,88118.94
2022-11-29T11:04:05.406Z,88115.81
2022-11-29T11:06:49.989Z,88101.13
2022-11-29T11:09:34.800Z,88100.94
2022-11-29T11:12:19.601Z,88105.38
2022-11-29T11:15:04.503Z,88104.22
2022-11-29T11:17:49.249Z,88099.91
2022-11-29T11:20:34.019Z,88107.94
2022-11-29T11:23:18.922Z,88104.94
2022-11-29T11:26:03.548Z,88108.03
2022-11-29T11:28:48.346Z,88098.03
2022-11-29T11:31:33.142Z,88104.31
2022-11-29T11:34:18.086Z,88105.59
2022-11-29T11:37:02.758Z,88107.78
2022-11-29T11:39:47.643Z,88108.63
2022-11-29T11:42:32.360Z,88101.22
2022-11-29T11:45:17.106Z,88106.06
2022-11-29T11:48:01.847Z,88109.63
2022-11-29T11:50:46.540Z,88104.53
2022-11-29T11:53:31.382Z,88112.56
2022-11-29T11:56:16.132Z,88113.25
2022-11-29T11:59:00.976Z,88115.13
2022-11-29T12:01:45.680Z,88109.06
2022-11-29T12:04:30.512Z,88111.91
2022-11-29T12:07:15.444Z,88112.03
2022-11-29T12:10:00.743Z,88117.25
2022-11-29T12:12:45.475Z,88117.69
2022-11-29T12:15:30.113Z,88119.34
2022-11-29T12:18:14.874Z,88120.31
2022-11-29T12:20:59.557Z,88117.03
2022-11-29T12:23:44.359Z,88129.13
2022-11-29T12:26:56.034Z,88124.03
2022-11-29T12:29:34.179Z,88123.69
2022-11-29T12:32:18.875Z,88126.91
2022-11-29T12:35:03.835Z,88120.56
2022-11-29T12:37:48.512Z,88126.88
2022-11-29T12:40:33.198Z,88122.59
2022-11-29T12:43:18.014Z,88128.06
2022-11-29T12:46:02.817Z,88127.22
2022-11-29T12:48:47.969Z,88126.34
2022-11-29T12:51:32.764Z,88129.19
2022-11-29T12:54:17.564Z,88123.19
2022-11-29T12:57:02.249Z,88129.22
2022-11-29T12:59:47.055Z,88134.50
2022-11-29T13:02:31.915Z,88127.84
2022-11-29T13:05:16.593Z,88132.75
2022-11-29T13:08:01.622Z,88133.25
2022-11-29T13:10:46.287Z,88133.66
2022-11-29T13:13:31.088Z,88133.38
2022-11-29T13:16:21.260Z,88135.69
2022-11-29T13:19:06.884Z,88130.38
2022-11-29T13:21:51.649Z,88134.50
2022-11-29T13:24:42.404Z,88136.13
2022-11-29T13:27:27.676Z,88136.47
2022-11-29T13:30:12.399Z,88139.44
2022-11-29T13:32:57.154Z,88136.75
2022-11-29T13:35:42.013Z,88135.88
2022-11-29T13:38:26.820Z,88142.47
2022-11-29T13:41:11.614Z,88134.16
2022-11-29T13:43:56.465Z,88144.84
2022-11-29T13:46:41.149Z,88146.56
2022-11-29T13:49:26.473Z,88141.16
2022-11-29T13:52:11.257Z,88143.00
2022-11-29T13:54:56.186Z,88137.22
2022-11-29T13:58:08.280Z,88141.72
2022-11-29T14:00:45.817Z,88145.50
2022-11-29T14:03:30.721Z,88147.22
2022-11-29T14:06:15.551Z,88153.50
2022-11-29T14:09:18.553Z,88147.03
2022-11-29T14:12:04.326Z,88149.44
2022-11-29T14:14:48.904Z,88148.19
2022-11-29T14:17:33.627Z,88154.69
2022-11-29T14:20:18.359Z,88152.75
2022-11-29T14:23:03.114Z,88154.47
2022-11-29T14:25:52.294Z,88159.13
2022-11-29T14:28:37.680Z,88159.13
2022-11-29T14:31:22.513Z,88161.63
2022-11-29T14:34:07.271Z,88162.91
2022-11-29T14:36:52.111Z,88159.31
2022-11-29T14:39:36.926Z,88166.81
2022-11-29T14:42:21.702Z,88168.75
2022-11-29T14:45:06.491Z,88165.84
2022-11-29T14:47:51.267Z,88170.81
2022-11-29T14:50:36.054Z,88169.38
2022-11-29T14:53:20.702Z,88173.56
2022-11-29T14:56:05.578Z,88175.78
2022-11-29T14:58:50.244Z,88169.94
2022-11-29T15:01:35.212Z,88175.16
2022-11-29T15:04:20.334Z,88177.47
2022-11-29T15:07:05.171Z,88180.09
2022-11-29T15:09:49.798Z,88179.53
2022-11-29T15:12:34.639Z,88181.94
2022-11-29T15:15:19.289Z,88175.44
2022-11-29T15:18:03.990Z,88183.19
2022-11-29T15:20:48.758Z,88185.53
2022-11-29T15:23:33.446Z,88188.41
2022-11-29T15:26:18.265Z,88184.44
2022-11-29T15:29:03.124Z,88187.31
2022-11-29T15:31:47.927Z,88190.38
2022-11-29T15:34:32.558Z,88193.88
2022-11-29T15:37:17.410Z,88191.00
2022-11-29T15:40:02.102Z,88197.94
2022-11-29T15:42:46.853Z,88201.13
2022-11-29T15:45:31.720Z,88207.13
2022-11-29T15:48:16.893Z,88210.13
2022-11-29T15:51:01.675Z,88213.41
2022-11-29T15:53:46.382Z,88211.28
2022-11-29T15:56:31.123Z,88210.28
2022-11-29T15:59:15.715Z,88205.63
2022-11-29T16:02:00.833Z,88213.41
2022-11-29T16:04:47.160Z,88212.06
2022-11-29T16:07:32.454Z,88218.00
2022-11-29T16:10:17.437Z,88216.63
2022-11-29T16:13:02.246Z,88214.50
2022-11-29T16:15:47.063Z,88215.44
2022-11-29T16:18:31.817Z,88217.09
2022-11-29T16:21:16.669Z,88226.34
2022-11-29T16:24:01.484Z,88230.66
2022-11-29T16:26:46.322Z,88226.91
2022-11-29T16:29:30.951Z,88225.91
2022-11-29T16:32:15.830Z,88230.31
2022-11-29T16:35:00.516Z,88233.59
2022-11-29T16:37:45.428Z,88235.06
2022-11-29T16:40:30.227Z,88226.88
2022-11-29T16:43:14.907Z,88240.50
2022-11-29T16:45:59.832Z,88240.28
2022-11-29T16:48:44.536Z,88240.53
2022-11-29T16:51:29.313Z,88244.97
2022-11-29T16:54:14.016Z,88240.28
2022-11-29T16:56:58.647Z,88245.88
2022-11-29T16:59:43.355Z,88243.50
2022-11-29T17:02:28.121Z,88247.97
2022-11-29T17:05:12.737Z,88242.34
2022-11-29T17:07:57.728Z,88245.69
2022-11-29T17:10:42.863Z,88248.28
2022-11-29T17:13:27.589Z,88248.13
2022-11-29T17:16:12.427Z,88242.75
2022-11-29T17:18:57.019Z,88250.69
2022-11-29T17:21:41.652Z,88249.25
2022-11-29T17:24:26.467Z,88253.91
2022-11-29T17:27:11.192Z,88254.53
2022-11-29T17:29:55.927Z,88256.81
2022-11-29T17:32:40.547Z,88253.53
2022-11-29T17:35:25.344Z,88263.28
2022-11-29T17:38:10.259Z,88261.63
2022-11-29T17:40:55.076Z,88262.06
2022-11-29T17:43:39.781Z,88262.06
2022-11-29T17:46:24.623Z,88263.22
2022-11-29T17:49:09.379Z,88262.06
2022-11-29T17:51:54.490Z,88261.09
2022-11-29T17:54:39.590Z,88263.19
2022-11-29T17:57:24.332Z,88271.16
2022-11-29T18:00:09.072Z,88270.66
2022-11-29T18:02:53.917Z,88266.19
2022-11-29T18:05:38.738Z,88262.72
2022-11-29T18:08:23.506Z,88275.84
2022-11-29T18:11:08.359Z,88270.78
2022-11-29T18:13:53.030Z,88267.19
2022-11-29T18:16:37.939Z,88271.44
2022-11-29T18:19:22.597Z,88279.41
2022-11-29T18:22:07.267Z,88277.94
2022-11-29T18:24:57.689Z,88280.09
2022-11-29T18:27:50.395Z,88282.41
2022-11-29T18:30:35.244Z,88279.88
2022-11-29T18:33:20.060Z,88276.16
2022-11-29T18:36:04.738Z,88280.00
2022-11-29T18:38:49.574Z,88286.88
2022-11-29T18:41:34.408Z,88283.72
2022-11-29T18:44:19.361Z,88280.72
2022-11-29T18:47:04.032Z,88288.31
2022-11-29T18:49:48.954Z,88286.03
2022-11-29T18:52:39.322Z,88286.41
2022-11-29T18:55:25.465Z,88290.38
2022-11-29T18:58:10.201Z,88289.00
2022-11-29T19:00:54.884Z,88291.34
2022-11-29T19:03:40.789Z,88288.56
2022-11-29T19:06:25.868Z,88287.09
2022-11-29T19:09:10.521Z,88296.50
2022-11-29T19:11:55.255Z,88301.22
2022-11-29T19:14:43.831Z,88299.78
2022-11-29T19:17:31.387Z,88297.63
2022-11-29T19:20:16.058Z,88297.88
2022-11-29T19:23:00.919Z,88304.69
2022-11-29T19:25:45.605Z,88295.75
2022-11-29T19:28:30.300Z,88298.78
2022-11-29T19:31:15.058Z,88301.84
2022-11-29T19:33:59.857Z,88296.47
2022-11-29T19:36:45.357Z,88301.63
2022-11-29T19:39:30.415Z,88299.06
2022-11-29T19:42:15.118Z,88296.66
2022-11-29T19:45:17.456Z,88303.91
2022-11-29T19:48:03.044Z,88299.19
2022-11-29T19:50:47.675Z,88300.31
2022-11-29T19:53:32.487Z,88303.13
2022-11-29T19:56:17.082Z,88302.94
2022-11-29T19:59:01.927Z,88300.88
2022-11-29T20:01:46.587Z,88304.22
2022-11-29T20:04:31.772Z,88300.72
2022-11-29T20:07:16.645Z,88302.66
2022-11-29T20:10:01.436Z,88304.75
2022-11-29T20:12:46.225Z,88302.66
2022-11-29T20:15:31.119Z,88306.16
2022-11-29T20:18:15.779Z,88307.56
2022-11-29T20:21:00.471Z,88307.75
2022-11-29T20:23:45.284Z,88312.69
2022-11-29T20:26:29.918Z,88308.88
2022-11-29T20:29:14.660Z,88314.34
2022-11-29T20:31:59.345Z,88313.69
2022-11-29T20:34:44.151Z,88315.56
2022-11-29T20:37:28.912Z,88321.03
2022-11-29T20:40:13.599Z,88313.06
2022-11-29T20:42:58.445Z,88316.09
2022-11-29T20:45:43.273Z,88311.16
2022-11-29T20:48:28.073Z,88316.75
2022-11-29T20:51:12.802Z,88315.56
2022-11-29T20:53:57.666Z,88316.28
2022-11-29T20:56:42.375Z,88304.75
2022-11-29T20:59:27.202Z,88310.53
2022-11-29T21:02:11.950Z,88308.66
2022-11-29T21:04:56.743Z,88310.94
2022-11-29T21:07:41.630Z,88306.19
2022-11-29T21:10:26.333Z,88307.28
2022-11-29T21:13:11.058Z,88308.94
2022-11-29T21:15:55.793Z,88304.56
2022-11-29T21:18:40.553Z,88314.22
2022-11-29T21:21:25.177Z,88312.16
2022-11-29T21:24:09.979Z,88316.41
2022-11-29T21:26:54.653Z,88314.59
2022-11-29T21:29:39.660Z,88314.34
2022-11-29T21:32:24.321Z,88319.47
2022-11-29T21:35:09.079Z,88315.94
2022-11-29T21:37:53.935Z,88306.81
2022-11-29T21:40:38.558Z,88309.66
2022-11-29T21:43:50.274Z,88315.53
2022-11-29T21:46:28.245Z,88314.66
2022-11-29T21:49:12.861Z,88309.00
2022-11-29T21:51:57.739Z,88316.75
2022-11-29T21:54:42.613Z,88312.34
2022-11-29T21:57:27.401Z,88311.66
2022-11-29T22:00:12.184Z,88310.25
2022-11-29T22:02:57.064Z,88305.31
2022-11-29T22:05:41.729Z,88304.34
2022-11-29T22:08:26.485Z,88302.19
2022-11-29T22:11:11.191Z,88301.94
2022-11-29T22:13:55.844Z,88312.44
2022-11-29T22:16:40.548Z,88309.59
2022-11-29T22:19:25.273Z,88312.84
2022-11-29T22:22:10.047Z,88304.13
2022-11-29T22:24:54.821Z,88304.81
2022-11-29T22:27:39.676Z,88304.09
2022-11-29T22:30:24.363Z,88311.78
2022-11-29T22:33:13.260Z,88310.66
2022-11-29T22:35:58.645Z,88317.75
2022-11-29T22:38:43.459Z,88308.16
2022-11-29T22:41:28.271Z,88309.38
2022-11-29T22:44:12.959Z,88313.34
2022-11-29T22:46:57.837Z,88315.69
2022-11-29T22:49:42.471Z,88316.81
2022-11-29T22:52:27.315Z,88311.63
2022-11-29T22:55:11.943Z,88306.97
2022-11-29T22:57:56.752Z,88314.53
2022-11-29T23:00:41.478Z,88311.03
2022-11-29T23:03:26.396Z,88309.91
2022-11-29T23:06:11.711Z,88314.13
2022-11-29T23:08:56.488Z,88311.56
2022-11-29T23:11:41.345Z,88315.31
2022-11-29T23:14:25.993Z,88307.13
2022-11-29T23:17:10.711Z,88313.19
2022-11-29T23:19:55.409Z,88309.19
2022-11-29T23:22:40.042Z,88309.94
2022-11-29T23:25:24.741Z,88312.53
2022-11-29T23:28:09.475Z,88310.91
2022-11-29T23:30:54.175Z,88310.00
2022-11-29T23:33:39.003Z,88307.88
2022-11-29T23:36:23.708Z,88310.00
2022-11-29T23:39:08.460Z,88308.38
2022-11-29T23:41:53.167Z,88309.53
2022-11-29T23:44:37.829Z,88310.44
2022-11-29T23:47:22.622Z,88310.84
2022-11-29T23:50:07.285Z,88313.88
2022-11-29T23:52:52.023Z,88306.06
2022-11-29T23:55:36.786Z,88307.44
2022-11-29T23:58:21.544Z,88308.19
